I17 weather

Piqua Airport-Hartzell Field
Piqua, Ohio, United States

Public forecast

Using degrees Fahrenheit for public forecast. Weather courtesy of forecast.io.

Closest aviation weather report (METAR) to Piqua Airport-Hartzell Field

Closest report is Darke County Airport, 10.5 nm (19.5 km) WNW. Retrieved 2019/10/14 00:35 UTC (0 seconds ago):

KVES 140035Z AUTO 22008KT 10SM CLR 13/M02 A2989 RMK AO2

Closest aviation forecast (TAF) to Piqua Airport-Hartzell Field

Closest forecast is James M Cox Dayton International Airport, 16.3 nm (30.1 km) SSE. Retrieved 2019-10-14 00:24 UTC (5 minutes ago):

TAF KDAY 132321Z 1400/1424 22010KT P6SM SKC FM140600 26006KT P6SM SKC FM141500 28011G17KT P6SM SKC FM142300 29005KT P6SM SKC